Time;durP1;ratioP1;P1;durP2;ratioP2;P2;SDS_P1;SDS_P2;PMS_P1;PMS_P2;Temp;Humidity;BMP_temperature;BMP_pressure;BME280_temperature;BME280_humidity;BME280_pressure;Samples;Min_cycle;Max_cycle;Signal;HPM_P1;HPM_P2
2022/05/16 00:02:05;;;;;;;11.38;4.65;;;14.20;77.50;;;;;;5088044;28;20044;-70
2022/05/16 00:04:30;;;;;;;14.63;4.70;;;14.20;77.50;;;;;;5072902;28;20056;-70
2022/05/16 00:06:56;;;;;;;11.38;5.47;;;14.20;77.50;;;;;;5069449;28;20055;-69
2022/05/16 00:09:22;;;;;;;13.40;5.05;;;14.20;77.40;;;;;;5080127;28;20048;-70
2022/05/16 00:11:48;;;;;;;19.73;8.02;;;14.20;77.50;;;;;;5088399;28;20099;-70
2022/05/16 00:14:14;;;;;;;16.15;4.75;;;14.20;77.30;;;;;;5078591;28;20072;-70
2022/05/16 00:16:40;;;;;;;16.33;5.18;;;14.20;77.40;;;;;;5069275;28;20070;-70
2022/05/16 00:19:06;;;;;;;13.38;4.70;;;14.10;77.40;;;;;;5076004;28;20051;-70
2022/05/16 00:21:32;;;;;;;11.93;5.03;;;14.10;77.40;;;;;;5073507;28;20045;-69
2022/05/16 00:23:59;;;;;;;9.10;4.40;;;14.20;77.50;;;;;;5069362;28;20041;-69
2022/05/16 00:26:25;;;;;;;14.50;5.60;;;14.20;77.60;;;;;;5067845;28;20063;-70
2022/05/16 00:28:51;;;;;;;12.73;4.90;;;14.20;77.60;;;;;;5072426;28;20081;-71
2022/05/16 00:31:16;;;;;;;14.10;4.93;;;14.20;77.60;;;;;;5087607;28;20048;-70
2022/05/16 00:33:42;;;;;;;13.18;6.72;;;14.20;77.70;;;;;;5090947;28;20040;-71
2022/05/16 00:36:08;;;;;;;12.00;5.10;;;14.20;77.80;;;;;;5092762;28;20043;-70
2022/05/16 00:38:34;;;;;;;10.55;4.70;;;14.20;77.80;;;;;;5085679;28;20093;-70
2022/05/16 00:41:01;;;;;;;15.43;5.25;;;14.20;77.70;;;;;;5091868;28;20090;-70
2022/05/16 00:43:44;;;;;;;10.57;4.60;;;14.20;77.80;;;;;;5091759;28;20155;-70
2022/05/16 00:46:10;;;;;;;9.63;4.75;;;14.30;77.70;;;;;;5071226;28;20048;-70
2022/05/16 00:48:36;;;;;;;16.00;4.90;;;14.20;77.80;;;;;;5072352;28;20102;-70
2022/05/16 00:51:02;;;;;;;12.15;5.32;;;14.20;77.70;;;;;;5082481;28;20043;-70
2022/05/16 00:53:28;;;;;;;14.63;5.65;;;14.20;77.70;;;;;;5076872;28;20071;-70
2022/05/16 00:55:53;;;;;;;10.45;4.45;;;14.20;77.70;;;;;;5073459;28;20072;-70
2022/05/16 00:58:19;;;;;;;9.68;5.45;;;14.20;77.60;;;;;;5074342;28;20119;-70
2022/05/16 01:00:48;;;;;;;9.32;4.80;;;14.20;77.60;;;;;;5084180;28;20044;-70
2022/05/16 01:06:03;;;;;;;13.63;5.00;;;14.10;77.60;;;;;;5074446;28;20061;-70
2022/05/16 01:08:31;;;;;;;8.05;4.35;;;14.10;77.50;;;;;;5104564;28;20110;-71
2022/05/16 01:11:02;;;;;;;10.80;4.85;;;14.10;77.40;;;;;;5078064;28;20045;-70
2022/05/16 01:13:30;;;;;;;8.23;4.28;;;14.10;77.50;;;;;;5072186;28;20528;-71
2022/05/16 01:15:58;;;;;;;8.88;4.65;;;14.10;77.50;;;;;;5086779;28;20044;-69
2022/05/16 01:18:25;;;;;;;9.88;5.28;;;14.10;77.40;;;;;;5092419;28;20044;-70
2022/05/16 01:21:02;;;;;;;13.35;4.57;;;14.10;77.50;;;;;;5086225;28;20051;-70
2022/05/16 01:23:32;;;;;;;11.55;5.30;;;14.10;77.60;;;;;;5091131;28;20390;-70
2022/05/16 01:25:59;;;;;;;10.60;5.57;;;14.10;77.60;;;;;;5073154;28;20063;-71
2022/05/16 01:28:25;;;;;;;7.78;4.28;;;14.10;77.60;;;;;;5071826;28;20040;-70
2022/05/16 01:30:54;;;;;;;11.52;5.18;;;14.10;77.60;;;;;;5072394;28;20033;-70
2022/05/16 01:33:25;;;;;;;13.63;5.65;;;14.00;77.60;;;;;;5071025;28;20078;-70
2022/05/16 01:35:52;;;;;;;11.45;4.65;;;14.00;77.70;;;;;;5079931;28;20084;-70
2022/05/16 01:38:19;;;;;;;11.32;4.72;;;14.10;77.70;;;;;;5071346;28;20185;-70
2022/05/16 01:40:48;;;;;;;11.80;5.20;;;14.00;77.70;;;;;;5071728;28;20086;-70
2022/05/16 01:43:15;;;;;;;11.30;5.28;;;14.00;77.70;;;;;;5071563;28;20040;-70
2022/05/16 01:45:43;;;;;;;9.70;4.88;;;14.00;77.70;;;;;;5078856;28;20074;-71
2022/05/16 01:48:09;;;;;;;12.82;4.80;;;14.00;77.60;;;;;;5071494;28;20048;-70
2022/05/16 01:50:35;;;;;;;8.48;4.85;;;14.00;77.60;;;;;;5073560;28;20334;-71
2022/05/16 01:53:01;;;;;;;12.90;4.25;;;14.00;77.60;;;;;;5071336;28;20059;-70
2022/05/16 01:55:27;;;;;;;13.15;4.95;;;13.90;77.50;;;;;;5077352;28;20044;-70
2022/05/16 01:57:52;;;;;;;11.35;4.18;;;13.90;77.50;;;;;;5091280;28;20086;-70
2022/05/16 02:00:18;;;;;;;9.10;3.85;;;13.90;77.50;;;;;;5085924;28;20052;-70
2022/05/16 02:02:44;;;;;;;12.13;5.05;;;13.90;77.50;;;;;;5071167;28;20131;-70
2022/05/16 02:05:13;;;;;;;7.80;4.32;;;13.90;77.50;;;;;;5075681;28;20047;-70
2022/05/16 02:07:39;;;;;;;11.20;4.78;;;13.90;77.50;;;;;;5071363;28;20821;-70
2022/05/16 02:10:07;;;;;;;9.80;4.43;;;13.90;77.40;;;;;;5076789;28;20113;-70
2022/05/16 02:12:33;;;;;;;10.00;4.55;;;13.90;77.50;;;;;;5091233;28;20125;-70
2022/05/16 02:14:59;;;;;;;16.80;5.65;;;13.90;77.40;;;;;;5091491;28;20075;-70
2022/05/16 02:17:24;;;;;;;10.00;4.30;;;13.90;77.40;;;;;;5090943;28;20120;-70
2022/05/16 02:19:50;;;;;;;7.25;4.00;;;13.90;77.40;;;;;;5090810;28;20593;-70
2022/05/16 02:25:00;;;;;;;13.48;6.75;;;13.90;77.20;;;;;;5071008;28;20455;-70
2022/05/16 02:27:26;;;;;;;9.05;3.92;;;13.90;77.30;;;;;;5087882;28;20047;-71
2022/05/16 02:29:51;;;;;;;9.45;3.90;;;14.00;77.20;;;;;;5074528;28;20048;-70
2022/05/16 02:32:17;;;;;;;10.40;3.95;;;13.90;77.10;;;;;;5077486;28;20127;-70
2022/05/16 02:34:44;;;;;;;8.35;3.80;;;13.90;77.00;;;;;;5076262;28;20048;-70
2022/05/16 02:37:11;;;;;;;9.70;4.05;;;13.90;76.90;;;;;;5072146;28;20098;-70
2022/05/16 02:39:36;;;;;;;10.27;3.85;;;13.90;76.90;;;;;;5089051;28;20521;-70
2022/05/16 02:42:02;;;;;;;10.25;4.00;;;13.90;76.80;;;;;;5090442;28;20040;-70
2022/05/16 02:44:28;;;;;;;11.55;4.43;;;13.90;76.60;;;;;;5085972;28;20037;-69
2022/05/16 02:46:54;;;;;;;11.23;3.80;;;13.90;76.60;;;;;;5070684;28;20438;-69
2022/05/16 02:49:21;;;;;;;8.85;3.58;;;14.00;76.50;;;;;;5082666;28;20043;-70
2022/05/16 02:51:47;;;;;;;10.77;4.15;;;14.00;76.40;;;;;;5091088;28;20044;-70
2022/05/16 02:54:12;;;;;;;12.93;3.88;;;13.90;76.40;;;;;;5077741;28;20428;-69
2022/05/16 02:56:38;;;;;;;8.10;3.42;;;13.80;76.30;;;;;;5091130;28;20047;-69
2022/05/16 02:59:04;;;;;;;7.97;3.72;;;13.90;76.20;;;;;;5089019;28;20040;-69
2022/05/16 03:01:33;;;;;;;7.88;3.60;;;13.90;76.30;;;;;;5082840;28;20711;-70
2022/05/16 03:04:00;;;;;;;7.13;3.70;;;13.90;76.20;;;;;;5070376;28;20044;-69
2022/05/16 03:06:25;;;;;;;7.20;4.05;;;13.80;76.20;;;;;;5073726;28;20035;-69
2022/05/16 03:08:51;;;;;;;8.73;3.97;;;13.80;76.10;;;;;;5078760;28;20073;-69
2022/05/16 03:11:16;;;;;;;8.43;3.58;;;13.80;76.10;;;;;;5069669;28;20082;-69
2022/05/16 03:13:42;;;;;;;13.05;4.18;;;13.70;76.10;;;;;;5074153;28;20128;-70
2022/05/16 03:16:07;;;;;;;9.43;3.28;;;13.70;76.00;;;;;;5082091;28;20117;-69
2022/05/16 03:18:33;;;;;;;12.43;3.65;;;13.70;75.90;;;;;;5085463;28;20068;-70
2022/05/16 03:20:59;;;;;;;10.27;3.70;;;13.70;75.90;;;;;;5088806;28;20553;-69
2022/05/16 03:23:24;;;;;;;10.45;3.45;;;13.70;75.90;;;;;;5082223;28;20036;-70
2022/05/16 03:25:51;;;;;;;8.07;2.95;;;13.70;76.00;;;;;;5081529;28;20086;-70
2022/05/16 03:28:16;;;;;;;9.73;3.60;;;13.70;75.90;;;;;;5086603;28;20459;-70
2022/05/16 03:30:44;;;;;;;9.63;3.97;;;13.70;75.80;;;;;;5082446;28;20036;-70
2022/05/16 03:33:10;;;;;;;9.38;3.72;;;13.80;75.80;;;;;;5085082;28;20420;-70
2022/05/16 03:35:36;;;;;;;6.68;3.40;;;13.70;75.70;;;;;;5088214;28;20035;-70
2022/05/16 03:38:02;;;;;;;14.40;2.85;;;13.70;75.60;;;;;;5087674;28;20033;-69
2022/05/16 03:40:43;;;;;;;11.85;3.70;;;13.70;75.60;;;;;;5088588;28;20032;-69
2022/05/16 03:43:10;;;;;;;7.35;2.90;;;13.70;75.50;;;;;;5074326;28;20036;-70
2022/05/16 03:45:39;;;;;;;10.32;3.33;;;13.70;75.40;;;;;;5087864;28;20046;-70
2022/05/16 03:48:06;;;;;;;9.50;3.28;;;13.70;75.30;;;;;;5084466;28;20040;-70
2022/05/16 03:50:32;;;;;;;14.43;4.78;;;13.70;75.20;;;;;;5082264;28;20048;-70
2022/05/16 03:52:59;;;;;;;7.47;3.00;;;13.70;75.10;;;;;;5082429;28;20090;-70
2022/05/16 03:55:26;;;;;;;6.30;2.95;;;13.70;75.00;;;;;;5088508;28;20174;-70
2022/05/16 03:57:52;;;;;;;8.80;3.55;;;13.70;74.90;;;;;;5079558;28;20063;-70
2022/05/16 04:00:18;;;;;;;11.48;3.58;;;13.60;74.90;;;;;;5083670;28;20401;-70
2022/05/16 04:02:44;;;;;;;8.50;3.35;;;13.60;74.70;;;;;;5084486;28;20098;-69
2022/05/16 04:05:15;;;;;;;8.07;3.08;;;13.70;74.60;;;;;;5070681;28;20071;-70
2022/05/16 04:07:41;;;;;;;8.10;3.05;;;13.70;74.50;;;;;;5070612;28;20071;-70
2022/05/16 04:10:07;;;;;;;8.70;3.85;;;13.70;74.50;;;;;;5073629;28;20071;-70
2022/05/16 04:12:34;;;;;;;8.88;2.90;;;13.70;74.40;;;;;;5076836;28;20139;-70
2022/05/16 04:15:00;;;;;;;6.97;2.78;;;13.70;74.30;;;;;;5076711;28;20053;-70
2022/05/16 04:17:26;;;;;;;11.15;3.92;;;13.70;74.30;;;;;;5075352;28;20040;-69
2022/05/16 04:19:52;;;;;;;6.90;2.83;;;13.70;74.30;;;;;;5072417;28;20051;-70
2022/05/16 04:22:18;;;;;;;6.78;2.92;;;13.70;74.40;;;;;;5071027;28;20032;-70
2022/05/16 04:24:43;;;;;;;11.18;3.70;;;13.70;74.30;;;;;;5072483;28;20044;-70
2022/05/16 04:27:09;;;;;;;8.70;2.95;;;13.70;74.30;;;;;;5086462;28;20060;-71
2022/05/16 04:29:35;;;;;;;7.10;3.13;;;13.80;74.20;;;;;;5086927;28;20040;-70
2022/05/16 04:32:00;;;;;;;8.50;2.88;;;13.80;74.20;;;;;;5079021;28;20398;-70
2022/05/16 04:34:26;;;;;;;8.30;2.90;;;13.80;74.20;;;;;;5091371;28;20036;-70
2022/05/16 04:36:51;;;;;;;7.50;2.63;;;13.80;74.10;;;;;;5083600;28;20113;-70
2022/05/16 04:39:17;;;;;;;8.02;2.67;;;13.80;74.10;;;;;;5072347;28;20481;-70
2022/05/16 04:44:27;;;;;;;12.23;2.92;;;13.90;74.00;;;;;;5076462;28;20048;-70
2022/05/16 04:46:52;;;;;;;4.93;2.20;;;13.90;73.90;;;;;;5073331;28;20055;-71
2022/05/16 04:49:18;;;;;;;14.32;3.08;;;13.90;73.90;;;;;;5074260;28;20053;-70
2022/05/16 04:51:43;;;;;;;11.98;2.78;;;13.90;73.80;;;;;;5085062;28;20128;-70
2022/05/16 04:54:09;;;;;;;7.88;2.90;;;13.90;73.70;;;;;;5072832;28;20048;-71
2022/05/16 04:56:36;;;;;;;4.57;2.70;;;14.00;73.70;;;;;;5078621;28;20123;-71
2022/05/16 04:59:02;;;;;;;7.18;2.60;;;14.00;73.70;;;;;;5093018;28;20040;-70
2022/05/16 05:01:27;;;;;;;3.08;2.00;;;14.10;73.60;;;;;;5087478;28;20036;-71
2022/05/16 05:03:53;;;;;;;7.47;2.85;;;14.10;73.50;;;;;;5075227;28;20036;-70
2022/05/16 05:06:19;;;;;;;7.75;2.67;;;14.10;73.40;;;;;;5090203;28;20131;-70
2022/05/16 05:08:46;;;;;;;4.95;2.25;;;14.20;73.40;;;;;;5076493;28;20036;-70
2022/05/16 05:16:40;;;;;;;7.03;2.78;;;14.20;73.10;;;;;;5084735;28;20049;-70
2022/05/16 05:19:06;;;;;;;8.45;2.65;;;14.30;73.00;;;;;;5081633;28;20044;-69
2022/05/16 05:21:32;;;;;;;7.93;2.92;;;14.30;72.90;;;;;;5085978;28;20412;-69
2022/05/16 05:23:58;;;;;;;9.02;2.60;;;14.30;72.90;;;;;;5072519;28;20040;-69
2022/05/16 05:26:23;;;;;;;6.72;2.80;;;14.40;72.90;;;;;;5070806;28;20044;-68
2022/05/16 05:28:49;;;;;;;6.55;2.53;;;14.40;72.70;;;;;;5088089;28;20159;-69
2022/05/16 05:31:18;;;;;;;6.22;2.67;;;14.50;72.60;;;;;;5076335;28;20382;-69
2022/05/16 05:33:44;;;;;;;5.65;2.28;;;14.50;72.50;;;;;;5074286;28;20048;-69
2022/05/16 05:36:10;;;;;;;9.23;2.80;;;14.60;72.30;;;;;;5071970;28;20413;-70
2022/05/16 05:38:36;;;;;;;10.05;3.15;;;14.60;72.20;;;;;;5075275;28;20119;-69
2022/05/16 05:41:06;;;;;;;7.15;2.10;;;14.50;72.10;;;;;;5078664;28;20032;-69
2022/05/16 05:43:32;;;;;;;8.32;2.83;;;14.60;72.20;;;;;;5090169;28;20044;-70
2022/05/16 05:45:58;;;;;;;9.90;3.15;;;14.60;72.20;;;;;;5090824;28;20088;-69
2022/05/16 05:48:24;;;;;;;9.15;2.10;;;14.60;72.20;;;;;;5089028;28;20036;-69
2022/05/16 05:50:50;;;;;;;9.55;2.47;;;14.70;72.20;;;;;;5078454;28;20048;-70
2022/05/16 05:53:15;;;;;;;6.20;2.30;;;14.70;72.30;;;;;;5082770;28;20036;-69
2022/05/16 05:55:41;;;;;;;5.38;2.90;;;14.80;72.30;;;;;;5078329;28;20420;-70
2022/05/16 05:58:07;;;;;;;8.10;2.60;;;14.90;72.10;;;;;;5089318;28;20039;-70
2022/05/16 06:00:32;;;;;;;9.15;2.50;;;14.90;71.90;;;;;;5073838;28;20120;-69
2022/05/16 06:03:00;;;;;;;7.15;3.00;;;15.00;71.70;;;;;;5080393;28;20059;-70
2022/05/16 06:05:26;;;;;;;7.35;2.55;;;15.10;71.50;;;;;;5074077;28;20081;-71
2022/05/16 06:07:52;;;;;;;10.75;4.47;;;15.10;71.40;;;;;;5082301;28;20039;-72
2022/05/16 06:10:18;;;;;;;5.68;2.88;;;15.20;71.10;;;;;;5086086;28;20040;-71
2022/05/16 06:12:43;;;;;;;8.35;2.28;;;15.20;71.10;;;;;;5083747;28;20074;-71
2022/05/16 06:15:10;;;;;;;8.63;3.00;;;15.30;71.00;;;;;;5078661;28;20416;-68
2022/05/16 06:17:36;;;;;;;9.23;2.90;;;15.40;70.80;;;;;;5073695;28;20386;-68
2022/05/16 06:20:07;;;;;;;7.05;2.28;;;15.40;70.70;;;;;;5070864;28;20051;-71
2022/05/16 06:22:38;;;;;;;7.57;2.70;;;15.60;70.60;;;;;;5077713;28;20033;-71
2022/05/16 06:27:54;;;;;;;9.68;2.63;;;15.70;70.00;;;;;;5081692;28;20705;-70
2022/05/16 06:30:20;;;;;;;17.60;3.80;;;15.70;70.00;;;;;;5090471;28;20040;-70
2022/05/16 06:32:47;;;;;;;8.43;2.72;;;15.80;69.90;;;;;;5086044;28;20120;-70
2022/05/16 06:35:13;;;;;;;7.68;2.92;;;15.90;69.80;;;;;;5069994;28;20811;-70
2022/05/16 06:37:39;;;;;;;7.68;2.10;;;16.00;69.70;;;;;;5071487;28;20392;-66
2022/05/16 06:40:05;;;;;;;6.32;2.53;;;16.10;69.90;;;;;;5081248;28;20043;-70
2022/05/16 06:42:31;;;;;;;7.75;2.83;;;16.20;69.80;;;;;;5086149;28;20401;-70
2022/05/16 06:44:57;;;;;;;11.23;3.00;;;16.30;69.40;;;;;;5090913;28;20043;-68
2022/05/16 06:47:23;;;;;;;10.85;3.33;;;16.40;69.00;;;;;;5076006;28;20044;-69
2022/05/16 06:49:49;;;;;;;7.40;2.90;;;16.40;68.60;;;;;;5084810;28;20048;-68
2022/05/16 06:52:16;;;;;;;5.78;2.30;;;16.50;68.50;;;;;;5090729;28;20048;-70
2022/05/16 06:54:42;;;;;;;8.98;2.95;;;16.50;68.50;;;;;;5085627;28;20110;-70
2022/05/16 06:57:08;;;;;;;6.78;2.38;;;16.60;68.60;;;;;;5080223;28;20043;-68
2022/05/16 06:59:34;;;;;;;10.48;2.42;;;16.60;68.40;;;;;;5071606;28;20048;-69
2022/05/16 07:02:00;;;;;;;10.20;2.80;;;16.70;68.20;;;;;;5071044;28;20063;-69
2022/05/16 07:04:25;;;;;;;12.75;2.95;;;16.80;68.10;;;;;;5076066;28;20039;-70
2022/05/16 07:06:51;;;;;;;6.38;2.38;;;16.90;68.10;;;;;;5078350;28;20051;-68
2022/05/16 07:09:17;;;;;;;8.30;3.05;;;16.90;67.90;;;;;;5083766;28;20044;-68
2022/05/16 07:11:43;;;;;;;8.85;2.63;;;17.00;67.70;;;;;;5070528;28;20155;-70
2022/05/16 07:14:09;;;;;;;15.95;3.22;;;17.10;67.70;;;;;;5070029;28;20111;-70
2022/05/16 07:16:35;;;;;;;5.93;2.67;;;17.20;67.50;;;;;;5069652;28;20579;-69
2022/05/16 07:19:01;;;;;;;9.57;3.10;;;17.20;67.30;;;;;;5070337;28;20409;-71
2022/05/16 07:21:27;;;;;;;9.35;3.13;;;17.30;66.80;;;;;;5070618;28;20127;-71
2022/05/16 07:23:52;;;;;;;10.55;2.90;;;17.30;66.50;;;;;;5074108;28;20115;-71
2022/05/16 07:29:02;;;;;;;7.47;2.58;;;17.50;66.70;;;;;;5083721;28;20545;-71
2022/05/16 07:31:28;;;;;;;7.60;2.95;;;17.60;66.80;;;;;;5069230;28;20132;-70
2022/05/16 07:33:54;;;;;;;13.07;2.95;;;17.70;66.80;;;;;;5070842;28;20485;-71
2022/05/16 07:36:19;;;;;;;17.85;3.83;;;17.80;66.90;;;;;;5069837;28;20408;-71
2022/05/16 07:38:45;;;;;;;5.00;1.83;;;17.90;66.80;;;;;;5072839;28;20055;-72
2022/05/16 07:41:10;;;;;;;8.25;3.28;;;18.00;66.40;;;;;;5078086;28;20425;-72
2022/05/16 07:43:37;;;;;;;8.93;3.05;;;18.10;66.00;;;;;;5069534;28;20146;-71
2022/05/16 07:46:04;;;;;;;10.68;3.00;;;18.20;65.90;;;;;;5079484;28;20155;-72
2022/05/16 07:48:30;;;;;;;8.50;2.78;;;18.30;65.70;;;;;;5087908;28;20047;-72
2022/05/16 07:50:56;;;;;;;11.88;2.55;;;18.40;65.40;;;;;;5077063;28;20044;-70
2022/05/16 07:53:22;;;;;;;10.23;2.63;;;18.50;65.40;;;;;;5076922;28;20413;-71
2022/05/16 07:55:54;;;;;;;9.35;2.72;;;18.60;65.30;;;;;;5073878;28;20047;-69
2022/05/16 07:58:20;;;;;;;8.68;2.83;;;18.80;64.90;;;;;;5081026;28;20048;-69
2022/05/16 08:00:48;;;;;;;8.07;2.95;;;18.90;64.60;;;;;;5077906;28;20110;-69
2022/05/16 08:03:15;;;;;;;5.63;2.60;;;19.00;64.20;;;;;;5088620;28;20076;-69
2022/05/16 08:05:42;;;;;;;9.32;2.35;;;19.00;64.10;;;;;;5086990;28;20041;-70
2022/05/16 08:10:52;;;;;;;11.25;2.53;;;19.00;64.30;;;;;;5085455;28;20044;-70
2022/05/16 08:13:18;;;;;;;9.63;3.63;;;19.00;64.40;;;;;;5080508;28;20055;-69
2022/05/16 08:15:44;;;;;;;10.30;2.63;;;19.00;64.20;;;;;;5087345;28;20040;-69
2022/05/16 08:18:12;;;;;;;4.90;2.03;;;19.00;64.10;;;;;;5101248;28;20044;-69
2022/05/16 08:20:42;;;;;;;11.90;2.75;;;19.00;64.10;;;;;;5081506;28;20504;-69
2022/05/16 08:23:08;;;;;;;8.40;2.38;;;19.10;64.00;;;;;;5079252;28;20037;-69
2022/05/16 08:25:33;;;;;;;6.43;2.22;;;19.10;64.10;;;;;;5089754;28;20096;-69
2022/05/16 08:27:59;;;;;;;14.65;2.72;;;19.20;64.30;;;;;;5091700;28;20048;-69
2022/05/16 08:30:25;;;;;;;7.35;2.22;;;19.30;64.30;;;;;;5075399;28;20052;-69
2022/05/16 08:32:51;;;;;;;8.13;2.55;;;19.40;64.20;;;;;;5080273;28;20123;-69
2022/05/16 08:35:19;;;;;;;11.75;2.88;;;19.50;64.20;;;;;;5069667;28;20063;-69
2022/05/16 08:40:49;;;;;;;18.02;3.25;;;19.60;63.90;;;;;;5081926;28;20139;-69
2022/05/16 08:43:38;;;;;;;10.13;2.75;;;19.70;63.30;;;;;;5083079;28;20051;-70
2022/05/16 08:46:16;;;;;;;8.30;2.92;;;19.80;63.50;;;;;;5076152;28;20048;-69
2022/05/16 08:48:48;;;;;;;8.98;2.47;;;19.90;63.30;;;;;;5074901;28;20378;-70
2022/05/16 08:51:19;;;;;;;;;;;20.00;63.20;;;;;;5071612;28;20519;-69
2022/05/16 08:53:53;;;;;;;13.38;2.72;;;20.10;63.20;;;;;;5074467;28;20446;-70
2022/05/16 08:56:25;;;;;;;12.60;3.63;;;20.20;63.20;;;;;;5075624;28;20052;-70
2022/05/16 08:58:57;;;;;;;8.93;2.40;;;20.40;62.50;;;;;;5081961;28;20409;-69
2022/05/16 09:01:31;;;;;;;8.65;2.55;;;20.50;61.90;;;;;;5090919;28;20047;-69
2022/05/16 09:04:02;;;;;;;8.75;2.97;;;20.70;61.50;;;;;;5088281;28;20084;-69
2022/05/16 09:06:35;;;;;;;9.13;2.63;;;20.90;61.40;;;;;;5083927;28;20123;-70
2022/05/16 09:09:12;;;;;;;8.80;2.72;;;21.10;61.00;;;;;;5072620;28;20048;-69
2022/05/16 09:12:09;;;;;;;10.13;3.15;;;21.20;60.40;;;;;;5078394;28;20055;-70
2022/05/16 09:15:08;;;;;;;7.53;2.33;;;21.50;59.70;;;;;;5076668;28;20505;-70
2022/05/16 09:17:52;;;;;;;7.72;2.40;;;21.60;57.70;;;;;;5084345;28;20051;-69
2022/05/16 09:20:41;;;;;;;11.20;2.85;;;21.60;59.00;;;;;;5084644;28;20063;-68
2022/05/16 09:23:49;;;;;;;8.43;2.83;;;21.60;58.00;;;;;;5069404;28;20489;-68
2022/05/16 09:26:33;;;;;;;9.82;2.60;;;21.60;58.40;;;;;;5076410;28;20044;-65
2022/05/16 09:29:12;;;;;;;8.18;2.58;;;21.60;57.80;;;;;;5085760;28;20070;-67
2022/05/16 09:31:42;;;;;;;11.38;2.58;;;21.60;58.70;;;;;;5085859;28;20560;-68
2022/05/16 09:34:09;;;;;;;8.85;2.92;;;21.70;59.10;;;;;;5097825;28;20043;-67
2022/05/16 09:36:38;;;;;;;13.70;3.22;;;21.70;59.50;;;;;;5075022;28;20045;-68
2022/05/16 09:39:06;;;;;;;8.07;2.80;;;21.80;59.70;;;;;;5078307;28;20036;-67
2022/05/16 09:41:43;;;;;;;10.18;2.58;;;21.90;59.90;;;;;;5112231;28;20050;-68
2022/05/16 09:44:28;;;;;;;14.73;3.30;;;22.00;59.40;;;;;;5098813;28;20044;-69
2022/05/16 09:47:15;;;;;;;11.18;2.50;;;22.00;58.50;;;;;;5071384;28;20501;-69
2022/05/16 09:49:42;;;;;;;9.63;2.60;;;22.10;58.10;;;;;;5080089;28;20044;-69
2022/05/16 09:52:21;;;;;;;17.73;2.65;;;22.10;58.50;;;;;;5092078;28;20055;-67
2022/05/16 09:54:59;;;;;;;9.43;3.08;;;22.20;58.30;;;;;;5089268;28;20047;-67
2022/05/16 09:57:26;;;;;;;12.43;3.30;;;22.30;57.90;;;;;;5096920;28;20051;-68
2022/05/16 09:59:55;;;;;;;11.38;2.60;;;22.40;58.10;;;;;;5078460;28;20040;-67
2022/05/16 10:02:23;;;;;;;11.45;3.22;;;22.50;57.90;;;;;;5074087;28;20045;-68
2022/05/16 10:04:55;;;;;;;8.00;2.72;;;22.50;57.60;;;;;;5085467;28;20041;-67
2022/05/16 10:07:41;;;;;;;11.00;3.03;;;22.50;56.80;;;;;;5071539;28;20093;-69
2022/05/16 10:10:10;;;;;;;14.35;2.97;;;22.50;56.60;;;;;;5070530;28;20055;-67
2022/05/16 10:12:35;;;;;;;9.65;2.47;;;22.50;56.90;;;;;;5070417;28;20794;-68
2022/05/16 10:15:01;;;;;;;12.25;3.33;;;22.50;57.10;;;;;;5069812;28;20084;-68
2022/05/16 10:17:34;;;;;;;8.93;2.83;;;22.40;57.70;;;;;;5071094;28;20052;-69
2022/05/16 10:20:15;;;;;;;19.08;3.40;;;22.40;57.70;;;;;;5084207;28;20051;-68
2022/05/16 10:22:42;;;;;;;10.30;2.75;;;22.50;57.50;;;;;;5083761;28;20040;-69
2022/05/16 10:25:14;;;;;;;15.30;3.13;;;22.40;57.80;;;;;;5082927;28;20051;-67
2022/05/16 10:27:42;;;;;;;7.05;2.28;;;22.50;57.80;;;;;;5091091;28;20044;-68
2022/05/16 10:30:20;;;;;;;14.18;2.85;;;22.50;57.90;;;;;;5088761;28;20109;-68
2022/05/16 10:35:39;;;;;;;9.15;2.38;;;22.50;57.20;;;;;;5089216;28;20048;-67
2022/05/16 10:38:21;;;;;;;7.97;2.67;;;22.60;57.20;;;;;;5084966;28;20040;-68
2022/05/16 10:40:54;;;;;;;10.80;3.22;;;22.70;56.50;;;;;;5084212;28;20044;-67
2022/05/16 10:43:32;;;;;;;9.32;3.60;;;22.80;56.20;;;;;;5082158;28;20044;-68
2022/05/16 10:46:06;;;;;;;10.32;3.17;;;22.90;56.30;;;;;;5073876;28;20043;-68
2022/05/16 10:48:52;;;;;;;13.98;3.80;;;23.00;56.70;;;;;;5081524;28;20101;-68
2022/05/16 10:51:28;;;;;;;14.73;4.45;;;23.10;55.30;;;;;;5088447;28;20054;-68
2022/05/16 10:54:09;;;;;;;9.75;3.10;;;23.10;55.60;;;;;;5088347;28;20489;-68
2022/05/16 10:56:48;;;;;;;11.77;4.22;;;23.30;55.20;;;;;;5090097;28;20419;-68
2022/05/16 10:59:16;;;;;;;14.88;4.32;;;23.50;54.70;;;;;;5089451;28;20488;-68
2022/05/16 11:01:53;;;;;;;18.00;5.03;;;23.60;54.50;;;;;;5077547;28;20641;-68
2022/05/16 11:04:36;;;;;;;11.18;3.53;;;23.70;54.10;;;;;;5091637;28;20202;-68
2022/05/16 11:07:32;;;;;;;9.45;3.42;;;23.80;53.10;;;;;;5087991;28;20048;-68
2022/05/16 11:10:10;;;;;;;8.35;3.63;;;23.80;52.90;;;;;;5066992;28;20053;-69
2022/05/16 11:13:00;;;;;;;9.77;4.10;;;23.70;52.80;;;;;;5068930;28;20056;-69
2022/05/16 11:15:38;;;;;;;8.43;3.17;;;23.70;52.10;;;;;;5069028;28;20049;-68
2022/05/16 11:18:10;;;;;;;12.88;4.57;;;23.70;52.50;;;;;;5066031;28;20137;-68
2022/05/16 11:20:48;;;;;;;10.25;3.75;;;23.70;52.80;;;;;;5086352;28;20044;-68
2022/05/16 11:23:34;;;;;;;14.77;5.25;;;23.70;53.10;;;;;;5089417;28;20105;-68
2022/05/16 11:26:14;;;;;;;9.63;4.70;;;23.80;52.90;;;;;;5081407;28;20048;-68
2022/05/16 11:29:17;;;;;;;13.13;4.40;;;23.90;52.50;;;;;;5105648;28;20053;-68
2022/05/16 11:31:58;;;;;;;8.65;3.90;;;23.80;53.10;;;;;;5103903;28;20040;-68
2022/05/16 11:34:58;;;;;;;13.35;4.55;;;23.80;53.50;;;;;;5090284;28;20044;-68
2022/05/16 11:37:40;;;;;;;10.75;4.85;;;23.80;54.10;;;;;;5067950;28;20056;-69
2022/05/16 11:40:26;;;;;;;12.88;3.85;;;23.70;54.30;;;;;;5069568;28;20048;-69
2022/05/16 11:43:14;;;;;;;14.70;4.03;;;23.70;53.80;;;;;;5076381;28;20051;-69
2022/05/16 11:46:20;;;;;;;14.98;4.63;;;23.70;53.90;;;;;;5071285;28;20496;-68
2022/05/16 11:49:11;;;;;;;10.90;3.90;;;23.70;54.10;;;;;;5090170;28;20054;-67
2022/05/16 11:51:48;;;;;;;9.52;3.72;;;23.60;54.90;;;;;;5087080;28;20052;-68
2022/05/16 11:54:19;;;;;;;17.50;5.35;;;23.60;55.00;;;;;;5089519;28;20109;-70
2022/05/16 12:02:27;;;;;;;12.10;4.55;;;23.50;54.10;;;;;;5089674;28;20048;-68
2022/05/16 12:05:03;;;;;;;10.25;4.25;;;23.50;54.50;;;;;;5087560;28;20044;-68
2022/05/16 12:07:32;;;;;;;11.93;4.28;;;23.40;54.60;;;;;;5069890;28;20040;-68
2022/05/16 12:10:00;;;;;;;13.52;4.38;;;23.40;54.70;;;;;;5070173;28;20040;-68
2022/05/16 12:12:40;;;;;;;14.15;4.30;;;23.40;54.90;;;;;;5079151;28;20054;-69
2022/05/16 12:15:23;;;;;;;8.48;3.85;;;23.40;55.20;;;;;;5079940;28;20051;-70
2022/05/16 12:17:57;;;;;;;8.90;4.60;;;23.50;55.10;;;;;;5085329;28;20094;-70
2022/05/16 12:20:43;;;;;;;16.85;6.32;;;23.40;55.40;;;;;;5078000;28;20544;-69
2022/05/16 12:23:11;;;;;;;9.95;4.35;;;23.40;55.20;;;;;;5071639;28;20044;-69
2022/05/16 12:25:38;;;;;;;17.83;5.95;;;23.40;55.00;;;;;;5068562;28;20105;-70
2022/05/16 12:28:13;;;;;;;14.90;5.53;;;23.40;54.80;;;;;;5068440;28;20574;-70
2022/05/16 12:30:51;;;;;;;18.52;6.88;;;23.50;53.70;;;;;;5076826;28;20509;-70
2022/05/16 12:33:42;;;;;;;14.27;6.82;;;23.50;53.70;;;;;;5089270;28;20036;-68
2022/05/16 12:36:13;;;;;;;11.52;5.68;;;23.50;54.20;;;;;;5074450;28;20098;-71
2022/05/16 12:38:39;;;;;;;13.18;5.47;;;23.50;54.10;;;;;;5075900;28;20045;-69
2022/05/16 12:41:47;;;;;;;12.05;5.75;;;23.50;54.20;;;;;;5081597;28;20116;-68
2022/05/16 12:44:31;;;;;;;10.25;5.40;;;23.70;54.10;;;;;;5082048;28;20052;-68
2022/05/16 12:47:21;;;;;;;11.05;6.05;;;23.70;53.50;;;;;;5075021;28;20405;-68
2022/05/16 12:49:53;;;;;;;15.77;6.87;;;23.80;53.50;;;;;;5078554;28;20040;-68
2022/05/16 12:52:38;;;;;;;13.30;7.22;;;23.80;53.90;;;;;;5076541;28;20382;-69
2022/05/16 12:55:38;;;;;;;14.07;7.43;;;23.90;54.50;;;;;;5083385;28;20044;-69
2022/05/16 12:58:20;;;;;;;13.48;8.80;;;24.00;55.10;;;;;;5074608;28;20085;-69
2022/05/16 13:00:55;;;;;;;14.32;8.68;;;24.20;54.60;;;;;;5088664;28;20033;-69
2022/05/16 13:03:38;;;;;;;22.05;8.60;;;24.20;54.50;;;;;;5088986;28;20101;-69
2022/05/16 13:06:27;;;;;;;17.75;9.52;;;24.30;54.30;;;;;;5078390;28;20577;-69
2022/05/16 13:09:14;;;;;;;17.98;9.82;;;24.50;54.50;;;;;;5082755;28;20048;-69
2022/05/16 13:11:46;;;;;;;13.65;9.20;;;24.60;54.00;;;;;;5079909;28;20493;-69
2022/05/16 13:14:30;;;;;;;15.93;10.23;;;24.60;54.40;;;;;;5073098;28;20051;-70
2022/05/16 13:17:02;;;;;;;15.60;9.63;;;24.80;54.40;;;;;;5075836;28;20044;-70
2022/05/16 13:19:34;;;;;;;17.60;10.32;;;24.80;55.10;;;;;;5072140;28;20033;-69
2022/05/16 13:22:17;;;;;;;20.42;9.32;;;25.00;54.90;;;;;;5075795;28;20492;-69
2022/05/16 13:24:42;;;;;;;20.00;11.63;;;25.10;54.40;;;;;;5086204;28;20043;-73
2022/05/16 13:30:05;;;;;;;18.75;9.68;;;24.90;53.80;;;;;;5091835;28;20476;-73
2022/05/16 13:32:31;;;;;;;17.15;8.80;;;24.70;54.40;;;;;;5078106;28;20045;-72
2022/05/16 13:35:03;;;;;;;17.95;9.50;;;24.60;55.50;;;;;;5089557;28;20046;-71
2022/05/16 13:37:40;;;;;;;13.63;9.25;;;24.30;55.70;;;;;;5079816;28;20409;-73